createdAt,value
2019-01-12T00:01:41.924Z,100415.39
2019-01-12T00:06:43.903Z,100416.67
2019-01-12T00:11:45.837Z,100412.49
2019-01-12T00:16:48.041Z,100419.04
2019-01-12T00:21:49.947Z,100430.97
2019-01-12T00:26:52.138Z,100431.25
2019-01-12T00:31:54.057Z,100432.55
2019-01-12T00:36:56.004Z,100429.10
2019-01-12T00:41:57.928Z,100425.70
2019-01-12T00:47:00.008Z,100424.45
2019-01-12T00:52:03.405Z,100425.55
2019-01-12T00:57:05.380Z,100445.96
2019-01-12T01:02:07.497Z,100439.51
2019-01-12T01:07:09.508Z,100456.11
2019-01-12T01:12:11.638Z,100459.61
2019-01-12T01:17:13.658Z,100468.73
2019-01-12T01:22:15.566Z,100473.60
2019-01-12T01:27:17.849Z,100482.32
2019-01-12T01:32:19.800Z,100486.95
2019-01-12T01:37:21.800Z,100490.20
2019-01-12T01:42:23.709Z,100487.53
2019-01-12T01:47:25.635Z,100486.90
2019-01-12T01:52:27.578Z,100489.07
2019-01-12T01:57:29.602Z,100488.92
2019-01-12T02:02:31.499Z,100484.41
2019-01-12T02:07:33.418Z,100489.48
2019-01-12T02:12:37.267Z,100483.34
2019-01-12T02:17:39.380Z,100486.90
2019-01-12T02:22:42.517Z,100490.31
2019-01-12T02:27:44.936Z,100486.26
2019-01-12T02:32:47.407Z,100498.56
2019-01-12T02:37:49.720Z,100477.05
2019-01-12T02:42:51.989Z,100477.05
2019-01-12T02:47:54.186Z,100478.98
2019-01-12T02:52:56.344Z,100478.98
2019-01-12T02:57:58.368Z,100481.56
2019-01-12T03:03:00.804Z,100478.16
2019-01-12T03:08:04.054Z,100470.65
2019-01-12T03:13:05.995Z,100474.27
2019-01-12T03:18:09.736Z,100461.17
2019-01-12T03:23:11.895Z,100463.91
2019-01-12T03:28:13.840Z,100466.19
2019-01-12T03:33:15.770Z,100471.52
2019-01-12T03:38:17.654Z,100461.38
2019-01-12T03:43:19.632Z,100460.65
2019-01-12T03:48:21.594Z,100453.06
2019-01-12T03:53:23.482Z,100458.51
2019-01-12T03:58:25.413Z,100443.73
2019-01-12T04:03:27.346Z,100447.73
2019-01-12T04:08:29.243Z,100447.21
2019-01-12T04:13:31.389Z,100441.77
2019-01-12T04:18:33.289Z,100443.82
2019-01-12T04:23:35.210Z,100435.86
2019-01-12T04:28:37.232Z,100431.07
2019-01-12T04:33:39.139Z,100433.92
2019-01-12T04:38:41.040Z,100427.69
2019-01-12T04:43:43.015Z,100434.54
2019-01-12T04:48:45.186Z,100436.45
2019-01-12T04:53:47.101Z,100438.23
2019-01-12T04:58:49.115Z,100438.72
2019-01-12T05:03:51.530Z,100433.24
2019-01-12T05:08:53.572Z,100433.02
2019-01-12T05:13:55.561Z,100435.95
2019-01-12T05:18:57.447Z,100432.63
2019-01-12T05:23:59.458Z,100437.25
2019-01-12T05:29:01.444Z,100428.18
2019-01-12T05:34:03.444Z,100435.42
2019-01-12T05:39:06.267Z,100436.22
2019-01-12T05:44:08.246Z,100439.45
2019-01-12T05:49:10.294Z,100435.06
2019-01-12T05:54:12.192Z,100436.81
2019-01-12T05:59:14.235Z,100434.09
2019-01-12T06:04:16.136Z,100439.17
2019-01-12T06:09:18.030Z,100437.81
2019-01-12T06:14:20.201Z,100437.91
2019-01-12T06:19:22.295Z,100449.56
2019-01-12T06:24:24.318Z,100443.98
2019-01-12T06:29:26.250Z,100449.63
2019-01-12T06:34:28.344Z,100446.78
2019-01-12T06:39:30.362Z,100453.80
2019-01-12T06:44:32.379Z,100457.44
2019-01-12T06:49:34.416Z,100461.20
2019-01-12T06:54:36.339Z,100464.02
2019-01-12T06:59:38.320Z,100469.43
2019-01-12T07:04:41.678Z,100466.63
2019-01-12T07:09:43.582Z,100465.38
2019-01-12T07:14:48.535Z,100465.38
2019-01-12T07:19:50.468Z,100461.40
2019-01-12T07:24:52.387Z,100468.90
2019-01-12T07:29:54.349Z,100477.16
2019-01-12T07:34:56.358Z,100475.50
2019-01-12T07:39:58.366Z,100476.80
2019-01-12T07:45:00.323Z,100467.59
2019-01-12T07:50:03.359Z,100471.23
2019-01-12T07:55:06.334Z,100472.22
2019-01-12T08:00:12.219Z,100464.32
2019-01-12T08:05:14.831Z,100453.55
2019-01-12T08:10:19.729Z,100448.20
2019-01-12T08:15:22.715Z,100453.92
2019-01-12T08:20:24.721Z,100453.99
2019-01-12T08:25:26.643Z,100437.52
2019-01-12T08:30:28.695Z,100448.55
2019-01-12T08:35:30.642Z,100448.55
2019-01-12T08:40:32.658Z,100430.19
2019-01-12T08:45:34.632Z,100442.39
2019-01-12T08:50:36.561Z,100421.06
2019-01-12T08:55:38.661Z,100421.06
2019-01-12T09:00:40.723Z,100419.34
2019-01-12T09:05:42.733Z,100419.23
2019-01-12T09:10:44.660Z,100424.26
2019-01-12T09:15:46.604Z,100413.54
2019-01-12T09:20:48.562Z,100396.83
2019-01-12T09:25:50.675Z,100400.56
2019-01-12T09:30:52.714Z,100397.48
2019-01-12T09:35:54.688Z,100380.87
2019-01-12T09:40:56.696Z,100380.87
2019-01-12T09:45:58.735Z,100390.25
2019-01-12T09:51:01.407Z,100389.95
2019-01-12T09:56:03.431Z,100368.80
2019-01-12T10:01:05.342Z,100362.91
2019-01-12T10:06:07.399Z,100352.14
2019-01-12T10:11:09.303Z,100340.11
2019-01-12T10:16:11.352Z,100343.61
2019-01-12T10:21:13.539Z,100336.33
2019-01-12T10:26:15.514Z,100320.88
2019-01-12T10:31:18.040Z,100316.78
2019-01-12T10:36:20.038Z,100301.48
2019-01-12T10:41:22.005Z,100304.42
2019-01-12T10:46:23.948Z,100292.26
2019-01-12T10:51:26.018Z,100286.37
2019-01-12T10:56:28.040Z,100284.68
2019-01-12T11:01:30.009Z,100286.97
2019-01-12T11:06:32.098Z,100260.48
2019-01-12T11:11:34.823Z,100255.28
2019-01-12T11:16:37.026Z,100253.17
2019-01-12T11:21:39.189Z,100232.42
2019-01-12T11:26:41.202Z,100227.55
2019-01-12T11:31:43.643Z,100202.22
2019-01-12T11:36:45.581Z,100210.52
2019-01-12T11:41:47.767Z,100197.45
2019-01-12T11:46:50.027Z,100166.64
2019-01-12T11:51:52.095Z,100144.05
2019-01-12T11:56:54.140Z,100143.98
2019-01-12T12:01:56.058Z,100133.41
2019-01-12T12:06:57.951Z,100159.25
2019-01-12T12:11:59.872Z,100124.18
2019-01-12T12:17:01.779Z,100108.59
2019-01-12T12:22:03.866Z,100107.59
2019-01-12T12:27:06.938Z,100089.83
2019-01-12T12:32:08.995Z,100095.58
2019-01-12T12:37:11.048Z,100073.41
2019-01-12T12:42:13.151Z,100071.77
2019-01-12T12:47:15.454Z,100051.97
2019-01-12T12:52:17.421Z,100039.92
2019-01-12T12:57:19.598Z,100035.50
2019-01-12T13:02:21.663Z,100038.80
2019-01-12T13:07:23.614Z,100023.50
2019-01-12T13:12:25.539Z,100011.55
2019-01-12T13:17:27.558Z,100000.48
2019-01-12T13:22:29.782Z,99997.45
2019-01-12T13:27:32.007Z,99975.45
2019-01-12T13:32:35.215Z,99969.63
2019-01-12T13:37:37.299Z,99957.58
2019-01-12T13:42:39.291Z,99943.12
2019-01-12T13:47:42.391Z,99947.45
2019-01-12T13:52:44.559Z,99945.80
2019-01-12T13:57:48.119Z,99938.03
2019-01-12T14:02:50.404Z,99923.44
2019-01-12T14:07:56.412Z,99920.80
2019-01-12T14:12:58.646Z,99910.66
2019-01-12T14:18:02.642Z,99912.56
2019-01-12T14:23:05.128Z,99890.70
2019-01-12T14:28:07.382Z,99890.70
2019-01-12T14:33:09.878Z,99875.94
2019-01-12T14:38:12.191Z,99875.94
2019-01-12T14:43:14.376Z,99869.36
2019-01-12T14:48:42.205Z,99864.66
2019-01-12T14:53:44.289Z,99840.98
2019-01-12T14:58:46.847Z,99825.29
2019-01-12T15:03:49.224Z,99826.56
2019-01-12T15:08:51.702Z,99815.09
2019-01-12T15:13:54.290Z,99815.84
2019-01-12T15:18:56.747Z,99804.16
2019-01-12T15:23:58.698Z,99806.11
2019-01-12T15:29:01.055Z,99786.56
2019-01-12T15:34:03.360Z,99769.20
2019-01-12T15:39:06.350Z,99757.61
2019-01-12T15:44:09.877Z,99757.61
2019-01-12T15:49:12.287Z,99755.98
2019-01-12T15:54:14.915Z,99757.86
2019-01-12T15:59:16.860Z,99721.05
2019-01-12T16:04:19.420Z,99732.91
2019-01-12T16:09:21.526Z,99727.12
2019-01-12T16:14:24.376Z,99720.09
2019-01-12T16:19:26.861Z,99715.97
2019-01-12T16:24:29.107Z,99715.97
2019-01-12T16:29:31.449Z,99701.91
2019-01-12T16:34:33.462Z,99701.91
2019-01-12T16:39:35.493Z,99691.80
2019-01-12T16:44:37.447Z,99676.83
2019-01-12T16:49:39.454Z,99668.83
2019-01-12T16:54:41.971Z,99657.28
2019-01-12T16:59:44.051Z,99666.55
2019-01-12T17:04:46.128Z,99666.55
2019-01-12T17:09:49.695Z,99673.66
2019-01-12T17:14:52.171Z,99640.91
2019-01-12T17:19:54.787Z,99636.13
2019-01-12T17:24:57.141Z,99635.36
2019-01-12T17:29:59.415Z,99625.81
2019-01-12T17:35:02.196Z,99623.45
2019-01-12T17:40:05.762Z,99610.06
2019-01-12T17:45:11.594Z,99608.53
2019-01-12T17:50:16.689Z,99610.83
2019-01-12T17:55:20.752Z,99621.31
2019-01-12T18:00:32.934Z,99607.67
2019-01-12T18:05:35.119Z,99607.67
2019-01-12T18:10:37.441Z,99618.62
2019-01-12T18:15:41.057Z,99626.02
2019-01-12T18:20:43.726Z,99640.95
2019-01-12T18:25:46.207Z,99625.44
2019-01-12T18:30:49.271Z,99629.73
2019-01-12T18:35:51.739Z,99640.91
2019-01-12T18:40:53.931Z,99622.31
2019-01-12T18:45:56.193Z,99641.48
2019-01-12T18:50:58.098Z,99641.48
2019-01-12T18:56:00.031Z,99642.95
2019-01-12T19:01:02.105Z,99625.67
2019-01-12T19:06:04.165Z,99625.67
2019-01-12T19:11:06.111Z,99625.11
2019-01-12T19:16:08.258Z,99611.09
2019-01-12T19:21:10.284Z,99616.69
2019-01-12T19:26:13.282Z,99604.01
2019-01-12T19:31:15.262Z,99597.59
2019-01-12T19:36:17.172Z,99584.61
2019-01-12T19:41:19.304Z,99576.32
2019-01-12T19:46:21.592Z,99576.32
2019-01-12T19:51:23.692Z,99571.39
2019-01-12T19:56:25.707Z,99576.48
2019-01-12T20:01:27.832Z,99579.22
2019-01-12T20:06:29.839Z,99570.49
2019-01-12T20:11:31.942Z,99556.35
2019-01-12T20:16:34.163Z,99553.92
2019-01-12T20:21:37.377Z,99553.33
2019-01-12T20:26:39.556Z,99559.28
2019-01-12T20:32:03.805Z,99548.94
2019-01-12T20:37:43.714Z,99551.92
2019-01-12T20:43:13.603Z,99536.97
2019-01-12T20:48:38.157Z,99536.97
2019-01-12T20:54:07.219Z,99515.14
2019-01-12T20:59:27.936Z,99515.14
2019-01-12T21:04:52.521Z,99526.66
2019-01-12T21:10:11.539Z,99528.36
2019-01-12T21:15:23.082Z,99511.92
2019-01-12T21:20:25.205Z,99513.95
2019-01-12T21:25:27.714Z,99507.48
2019-01-12T21:30:30.156Z,99502.47
2019-01-12T21:35:32.237Z,99500.25
2019-01-12T21:40:34.618Z,99477.59
2019-01-12T21:45:37.643Z,99479.14
2019-01-12T21:50:58.157Z,99484.88
2019-01-12T21:56:19.214Z,99489.81
2019-01-12T22:01:40.622Z,99487.25
2019-01-12T22:07:00.911Z,99465.48
2019-01-12T22:12:23.766Z,99467.12
2019-01-12T22:17:44.755Z,99473.64
2019-01-12T22:23:05.125Z,99466.36
2019-01-12T22:28:25.605Z,99469.44
2019-01-12T22:33:46.442Z,99467.53
2019-01-12T22:39:08.796Z,99465.25
2019-01-12T22:44:29.618Z,99472.31
2019-01-12T22:49:50.342Z,99471.33
2019-01-12T22:55:11.760Z,99470.98
2019-01-12T23:00:46.888Z,99477.98
2019-01-12T23:05:49.981Z,99466.81
2019-01-12T23:10:53.526Z,99466.81
2019-01-12T23:15:55.462Z,99465.17
2019-01-12T23:20:58.374Z,99463.62
2019-01-12T23:26:01.585Z,99470.41
2019-01-12T23:31:03.640Z,99454.15
2019-01-12T23:36:05.768Z,99449.32
2019-01-12T23:41:07.740Z,99453.96
2019-01-12T23:46:09.750Z,99437.68
2019-01-12T23:51:11.781Z,99439.29
2019-01-12T23:56:13.688Z,99430.30
